createdAt,value
2022-11-29T00:01:11.911Z,6.42
2022-11-29T00:03:38.661Z,6.46
2022-11-29T00:06:11.484Z,6.46
2022-11-29T00:08:38.506Z,6.46
2022-11-29T00:11:07.171Z,6.47
2022-11-29T00:13:34.641Z,6.46
2022-11-29T00:16:06.475Z,6.39
2022-11-29T00:18:33.817Z,6.49
2022-11-29T00:21:00.932Z,6.40
2022-11-29T00:23:27.872Z,6.49
2022-11-29T00:25:54.829Z,6.51
2022-11-29T00:28:21.783Z,6.49
2022-11-29T00:30:48.700Z,6.43
2022-11-29T00:33:15.667Z,6.50
2022-11-29T00:35:42.923Z,6.46
2022-11-29T00:38:09.795Z,6.42
2022-11-29T00:40:36.978Z,6.43
2022-11-29T00:43:03.981Z,6.48
2022-11-29T00:45:30.931Z,6.43
2022-11-29T00:47:57.837Z,6.36
2022-11-29T00:50:24.664Z,6.50
2022-11-29T00:52:51.667Z,6.57
2022-11-29T00:55:18.632Z,6.37
2022-11-29T00:57:45.579Z,6.46
2022-11-29T01:00:13.570Z,6.41
2022-11-29T01:02:40.868Z,6.37
2022-11-29T01:05:08.592Z,6.37
2022-11-29T01:07:36.015Z,6.32
2022-11-29T01:10:03.398Z,6.46
2022-11-29T01:12:30.416Z,6.48
2022-11-29T01:14:59.076Z,6.43
2022-11-29T01:17:26.084Z,6.51
2022-11-29T01:19:53.192Z,6.44
2022-11-29T01:22:20.063Z,6.49
2022-11-29T01:24:47.293Z,6.54
2022-11-29T01:27:14.270Z,6.52
2022-11-29T01:29:41.208Z,6.50
2022-11-29T01:32:08.141Z,6.52
2022-11-29T01:34:35.160Z,6.49
2022-11-29T01:37:02.016Z,6.37
2022-11-29T01:39:29.467Z,6.45
2022-11-29T01:41:57.340Z,6.48
2022-11-29T01:45:10.789Z,6.54
2022-11-29T01:47:41.530Z,6.59
2022-11-29T01:50:09.095Z,6.61
2022-11-29T01:52:36.082Z,6.61
2022-11-29T01:55:05.125Z,6.64
2022-11-29T01:57:35.857Z,6.60
2022-11-29T02:00:09.087Z,6.65
2022-11-29T02:02:40.566Z,6.63
2022-11-29T02:05:08.494Z,6.59
2022-11-29T02:07:36.262Z,6.57
2022-11-29T02:10:04.076Z,6.62
2022-11-29T02:12:47.857Z,6.61
2022-11-29T02:15:58.044Z,6.68
2022-11-29T02:18:59.484Z,6.62
2022-11-29T02:21:29.661Z,6.65
2022-11-29T02:24:13.783Z,6.64
2022-11-29T02:27:54.588Z,6.66
2022-11-29T02:31:00.325Z,6.81
2022-11-29T02:37:19.877Z,6.80
2022-11-29T02:40:28.833Z,6.68
2022-11-29T02:43:44.551Z,6.60
2022-11-29T02:46:32.095Z,6.57
2022-11-29T02:49:14.199Z,6.55
2022-11-29T02:51:52.656Z,6.51
2022-11-29T02:54:48.431Z,6.53
2022-11-29T02:57:31.876Z,6.54
2022-11-29T03:00:14.421Z,6.58
2022-11-29T03:03:22.467Z,6.60
2022-11-29T03:06:29.271Z,6.60
2022-11-29T03:09:23.497Z,6.57
2022-11-29T03:15:30.902Z,6.64
2022-11-29T03:18:01.896Z,6.62
2022-11-29T03:20:38.308Z,6.66
2022-11-29T03:23:21.303Z,6.68
2022-11-29T03:26:21.948Z,6.74
2022-11-29T03:29:01.713Z,6.57
2022-11-29T03:31:36.070Z,6.58
2022-11-29T03:34:08.975Z,6.65
2022-11-29T03:37:18.551Z,6.64
2022-11-29T03:39:52.541Z,6.71
2022-11-29T03:42:27.076Z,6.69
2022-11-29T03:45:04.841Z,6.69
2022-11-29T03:47:37.214Z,6.82
2022-11-29T03:50:08.074Z,6.80
2022-11-29T03:52:51.782Z,6.66
2022-11-29T03:55:41.679Z,6.83
2022-11-29T03:58:18.601Z,6.85
2022-11-29T04:01:03.448Z,6.74
2022-11-29T04:04:05.538Z,6.65
2022-11-29T04:06:41.557Z,6.77
2022-11-29T04:09:35.506Z,6.76
2022-11-29T04:12:35.890Z,6.73
2022-11-29T04:15:20.764Z,6.76
2022-11-29T04:18:34.214Z,6.72
2022-11-29T04:21:17.554Z,6.75
2022-11-29T04:24:12.007Z,6.77
2022-11-29T04:27:01.121Z,6.77
2022-11-29T04:29:47.184Z,6.76
2022-11-29T04:32:47.015Z,6.71
2022-11-29T04:35:55.640Z,6.58
2022-11-29T04:42:05.425Z,6.64
2022-11-29T04:45:19.012Z,6.68
2022-11-29T04:47:56.873Z,6.71
2022-11-29T04:51:21.430Z,6.69
2022-11-29T04:53:58.811Z,6.69
2022-11-29T04:56:55.704Z,6.68
2022-11-29T04:59:47.293Z,6.69
2022-11-29T05:05:54.378Z,6.70
2022-11-29T05:15:38.036Z,6.64
2022-11-29T05:18:47.727Z,6.60
2022-11-29T05:21:30.707Z,6.67
2022-11-29T05:24:38.958Z,6.68
2022-11-29T05:27:29.142Z,6.70
2022-11-29T05:30:05.690Z,6.71
2022-11-29T05:33:05.695Z,6.69
2022-11-29T05:35:55.101Z,6.68
2022-11-29T05:38:53.555Z,6.64
2022-11-29T05:41:39.371Z,6.69
2022-11-29T05:44:13.278Z,6.70
2022-11-29T05:47:02.160Z,6.68
2022-11-29T05:49:45.205Z,6.73
2022-11-29T05:52:26.162Z,6.64
2022-11-29T05:55:20.428Z,6.67
2022-11-29T05:58:01.539Z,6.70
2022-11-29T06:00:35.129Z,6.67
2022-11-29T06:03:34.238Z,6.66
2022-11-29T06:06:08.739Z,6.70
2022-11-29T06:08:58.571Z,6.70
2022-11-29T06:11:30.605Z,6.74
2022-11-29T06:14:48.426Z,6.75
2022-11-29T06:17:53.181Z,6.74
2022-11-29T06:20:58.925Z,6.74
2022-11-29T06:23:55.527Z,6.74
2022-11-29T06:26:50.052Z,6.77
2022-11-29T06:29:55.493Z,6.76
2022-11-29T06:32:37.266Z,6.80
2022-11-29T06:35:09.574Z,6.78
2022-11-29T06:37:43.352Z,6.77
2022-11-29T06:40:12.634Z,6.73
2022-11-29T06:42:39.587Z,6.75
2022-11-29T06:45:07.761Z,6.69
2022-11-29T06:47:44.247Z,6.71
2022-11-29T06:50:52.378Z,6.63
2022-11-29T06:53:56.280Z,6.71
2022-11-29T06:56:41.791Z,6.72
2022-11-29T06:59:25.881Z,6.68
2022-11-29T07:02:19.446Z,6.76
2022-11-29T07:05:04.242Z,6.80
2022-11-29T07:07:31.900Z,6.80
2022-11-29T07:09:59.880Z,6.79
2022-11-29T07:12:27.462Z,6.77
2022-11-29T07:14:55.044Z,6.64
2022-11-29T07:17:33.919Z,6.56
2022-11-29T07:20:39.469Z,6.73
2022-11-29T07:23:19.182Z,6.73
2022-11-29T07:26:32.442Z,6.76
2022-11-29T07:29:16.586Z,6.81
2022-11-29T07:31:59.236Z,6.74
2022-11-29T07:35:15.874Z,6.70
2022-11-29T07:38:32.819Z,6.71
2022-11-29T07:41:22.643Z,6.75
2022-11-29T07:44:30.725Z,6.79
2022-11-29T07:46:57.564Z,6.74
2022-11-29T07:49:24.753Z,6.70
2022-11-29T07:51:51.877Z,6.70
2022-11-29T07:54:20.190Z,6.76
2022-11-29T07:56:47.350Z,6.65
2022-11-29T07:59:14.968Z,6.58
2022-11-29T08:01:42.059Z,6.65
2022-11-29T08:04:09.879Z,6.69
2022-11-29T08:06:36.892Z,6.71
2022-11-29T08:09:04.671Z,6.73
2022-11-29T08:11:31.627Z,6.73
2022-11-29T08:14:00.354Z,6.72
2022-11-29T08:16:27.900Z,6.66
2022-11-29T08:18:55.225Z,6.67
2022-11-29T08:21:22.388Z,6.68
2022-11-29T08:23:50.140Z,6.69
2022-11-29T08:26:18.120Z,6.69
2022-11-29T08:28:45.345Z,6.70
2022-11-29T08:31:13.554Z,6.69
2022-11-29T08:33:43.106Z,6.74
2022-11-29T08:36:28.397Z,6.73
2022-11-29T08:39:03.482Z,6.69
2022-11-29T08:41:34.995Z,6.68
2022-11-29T08:44:04.770Z,6.70
2022-11-29T08:46:50.382Z,6.66
2022-11-29T08:49:17.313Z,6.69
2022-11-29T08:51:44.737Z,6.75
2022-11-29T08:54:11.824Z,6.77
2022-11-29T08:59:25.707Z,6.82
2022-11-29T09:01:52.581Z,6.82
2022-11-29T09:04:19.542Z,6.90
2022-11-29T09:06:50.008Z,6.85
2022-11-29T09:09:17.656Z,6.85
2022-11-29T09:11:48.197Z,6.88
2022-11-29T09:14:17.611Z,6.78
2022-11-29T09:16:44.666Z,6.84
2022-11-29T09:19:14.334Z,6.87
2022-11-29T09:21:42.050Z,6.81
2022-11-29T09:24:10.520Z,6.86
2022-11-29T09:26:38.377Z,6.88
2022-11-29T09:29:06.678Z,6.87
2022-11-29T09:31:35.123Z,6.91
2022-11-29T09:34:02.755Z,6.91
2022-11-29T09:36:31.079Z,6.90
2022-11-29T09:38:59.019Z,6.87
2022-11-29T09:42:05.208Z,6.83
2022-11-29T09:45:08.828Z,6.88
2022-11-29T09:48:22.251Z,6.93
2022-11-29T09:51:09.311Z,6.87
2022-11-29T09:54:19.523Z,6.90
2022-11-29T09:56:49.491Z,6.98
2022-11-29T09:59:43.900Z,6.96
2022-11-29T10:02:27.171Z,6.98
2022-11-29T10:04:57.594Z,7.07
2022-11-29T10:07:47.247Z,7.06
2022-11-29T10:10:41.077Z,7.10
2022-11-29T10:13:20.516Z,7.15
2022-11-29T10:15:52.934Z,7.19
2022-11-29T10:18:24.259Z,7.24
2022-11-29T10:20:53.394Z,7.28
2022-11-29T10:23:29.723Z,7.27
2022-11-29T10:25:57.954Z,7.27
2022-11-29T10:28:30.747Z,7.31
2022-11-29T10:31:02.913Z,7.32
2022-11-29T10:33:34.536Z,7.35
2022-11-29T10:36:06.003Z,7.38
2022-11-29T10:38:33.104Z,7.38
2022-11-29T10:41:12.235Z,7.42
2022-11-29T10:43:39.368Z,7.37
2022-11-29T10:46:11.657Z,7.37
2022-11-29T10:48:38.621Z,7.38
2022-11-29T10:51:15.810Z,7.46
2022-11-29T10:53:42.842Z,7.47
2022-11-29T10:56:17.182Z,7.40
2022-11-29T10:58:56.237Z,7.46
2022-11-29T11:01:24.299Z,7.39
2022-11-29T11:03:55.503Z,7.41
2022-11-29T11:06:27.578Z,7.37
2022-11-29T11:09:13.232Z,7.42
2022-11-29T11:11:40.305Z,7.46
2022-11-29T11:14:18.342Z,7.46
2022-11-29T11:16:45.258Z,7.43
2022-11-29T11:19:41.616Z,7.45
2022-11-29T11:22:21.138Z,7.41
2022-11-29T11:24:57.292Z,7.44
2022-11-29T11:27:36.441Z,7.42
2022-11-29T11:30:05.365Z,7.43
2022-11-29T11:32:32.448Z,7.46
2022-11-29T11:35:01.776Z,7.50
2022-11-29T11:37:36.135Z,7.52
2022-11-29T11:40:26.057Z,7.53
2022-11-29T11:42:53.015Z,7.54
2022-11-29T11:45:26.506Z,7.52
2022-11-29T11:47:56.032Z,7.56
2022-11-29T11:50:44.778Z,7.60
2022-11-29T11:53:28.028Z,7.60
2022-11-29T11:55:58.116Z,7.67
2022-11-29T11:58:28.168Z,7.58
2022-11-29T12:01:05.918Z,7.64
2022-11-29T12:03:59.992Z,7.55
2022-11-29T12:06:45.478Z,7.60
2022-11-29T12:09:27.878Z,7.62
2022-11-29T12:12:01.952Z,7.64
2022-11-29T12:14:46.988Z,7.60
2022-11-29T12:17:21.804Z,7.65
2022-11-29T12:20:09.593Z,7.67
2022-11-29T12:22:45.287Z,7.68
2022-11-29T12:25:23.044Z,7.68
2022-11-29T12:27:50.746Z,7.67
2022-11-29T12:30:19.265Z,7.70
2022-11-29T12:33:15.502Z,7.72
2022-11-29T12:36:05.027Z,7.66
2022-11-29T12:39:14.931Z,7.69
2022-11-29T12:41:53.999Z,7.69
2022-11-29T12:45:03.636Z,7.67
2022-11-29T12:47:51.507Z,7.74
2022-11-29T12:51:02.002Z,7.74
2022-11-29T12:53:56.231Z,7.74
2022-11-29T12:56:46.369Z,7.77
2022-11-29T12:59:42.330Z,7.75
2022-11-29T13:02:58.124Z,7.63
2022-11-29T13:05:51.821Z,7.64
2022-11-29T13:09:02.972Z,7.67
2022-11-29T13:11:35.461Z,7.70
2022-11-29T13:14:41.066Z,7.62
2022-11-29T13:17:01.658Z,7.61
2022-11-29T13:19:46.038Z,7.62
2022-11-29T13:23:11.570Z,7.65
2022-11-29T13:25:42.346Z,7.58
2022-11-29T13:28:22.206Z,7.55
2022-11-29T13:30:49.370Z,7.66
2022-11-29T13:33:27.806Z,7.66
2022-11-29T13:36:14.734Z,7.63
2022-11-29T13:39:05.200Z,7.60
2022-11-29T13:41:46.565Z,7.66
2022-11-29T13:44:28.076Z,7.71
2022-11-29T13:47:17.842Z,7.69
2022-11-29T13:50:39.898Z,7.66
2022-11-29T13:53:14.856Z,7.61
2022-11-29T13:56:02.775Z,7.64
2022-11-29T13:58:39.642Z,7.63
2022-11-29T14:01:14.620Z,7.60
2022-11-29T14:03:42.783Z,7.60
2022-11-29T14:06:21.917Z,7.58
2022-11-29T14:09:22.528Z,7.58
2022-11-29T14:11:59.148Z,7.61
2022-11-29T14:14:40.856Z,7.58
2022-11-29T14:17:46.809Z,7.54
2022-11-29T14:20:46.742Z,7.61
2022-11-29T14:23:17.041Z,7.55
2022-11-29T14:26:26.638Z,7.55
2022-11-29T14:28:55.584Z,7.41
2022-11-29T14:31:48.532Z,7.45
2022-11-29T14:34:21.558Z,7.39
2022-11-29T14:37:16.790Z,7.30
2022-11-29T14:39:48.845Z,7.37
2022-11-29T14:42:21.812Z,7.36
2022-11-29T14:44:53.545Z,7.43
2022-11-29T14:47:27.252Z,7.39
2022-11-29T14:49:56.187Z,7.36
2022-11-29T14:52:34.335Z,7.40
2022-11-29T14:55:05.545Z,7.41
2022-11-29T14:58:08.009Z,7.40
2022-11-29T15:00:54.746Z,7.40
2022-11-29T15:03:31.238Z,7.42
2022-11-29T15:06:00.368Z,7.37
2022-11-29T15:08:35.957Z,7.41
2022-11-29T15:11:41.627Z,7.43
2022-11-29T15:14:46.983Z,7.39
2022-11-29T15:17:26.722Z,7.43
2022-11-29T15:20:38.950Z,7.37
2022-11-29T15:23:10.486Z,7.36
2022-11-29T15:25:50.827Z,7.35
2022-11-29T15:28:26.257Z,7.31
2022-11-29T15:31:07.866Z,7.36
2022-11-29T15:33:37.801Z,7.35
2022-11-29T15:36:10.290Z,7.39
2022-11-29T15:38:59.378Z,7.35
2022-11-29T15:41:31.643Z,7.43
2022-11-29T15:44:06.549Z,7.44
2022-11-29T15:46:35.685Z,7.43
2022-11-29T15:49:16.926Z,7.47
2022-11-29T15:51:46.351Z,7.45
2022-11-29T15:54:18.346Z,7.40
2022-11-29T15:56:48.052Z,7.40
2022-11-29T15:59:37.809Z,7.34
2022-11-29T16:02:16.743Z,7.35
2022-11-29T16:04:47.186Z,7.40
2022-11-29T16:07:15.330Z,7.33
2022-11-29T16:09:51.508Z,7.33
2022-11-29T16:12:19.650Z,7.26
2022-11-29T16:14:58.213Z,7.32
2022-11-29T16:17:35.449Z,7.31
2022-11-29T16:20:23.868Z,7.26
2022-11-29T16:23:14.375Z,7.26
2022-11-29T16:26:04.352Z,7.22
2022-11-29T16:28:38.023Z,7.18
2022-11-29T16:31:05.852Z,7.27
2022-11-29T16:33:32.839Z,7.34
2022-11-29T16:36:05.145Z,7.34
2022-11-29T16:38:32.101Z,7.25
2022-11-29T16:41:22.410Z,7.28
2022-11-29T16:43:54.212Z,7.32
2022-11-29T16:46:41.392Z,7.26
2022-11-29T16:49:35.817Z,7.26
2022-11-29T16:52:04.300Z,7.26
2022-11-29T16:54:34.266Z,7.30
2022-11-29T16:57:05.681Z,7.30
2022-11-29T16:59:32.782Z,7.27
2022-11-29T17:01:59.742Z,7.29
2022-11-29T17:04:27.063Z,7.38
2022-11-29T17:06:55.555Z,7.38
2022-11-29T17:09:30.635Z,7.32
2022-11-29T17:12:01.893Z,7.35
2022-11-29T17:14:29.725Z,7.31
2022-11-29T17:16:56.888Z,7.33
2022-11-29T17:19:24.713Z,7.36
2022-11-29T17:21:53.088Z,7.34
2022-11-29T17:24:21.213Z,7.34
2022-11-29T17:26:48.133Z,7.33
2022-11-29T17:29:16.132Z,7.33
2022-11-29T17:31:44.444Z,7.35
2022-11-29T17:34:11.639Z,7.34
2022-11-29T17:36:38.648Z,7.31
2022-11-29T17:39:06.081Z,7.28
2022-11-29T17:41:33.463Z,7.29
2022-11-29T17:44:00.919Z,7.34
2022-11-29T17:46:30.593Z,7.36
2022-11-29T17:49:00.432Z,7.39
2022-11-29T17:54:14.159Z,7.33
2022-11-29T17:56:41.019Z,7.33
2022-11-29T17:59:07.915Z,7.32
2022-11-29T18:01:36.326Z,7.33
2022-11-29T18:04:05.525Z,7.19
2022-11-29T18:06:39.803Z,7.40
2022-11-29T18:09:07.160Z,7.36
2022-11-29T18:11:44.847Z,7.35
2022-11-29T18:14:15.942Z,7.37
2022-11-29T18:16:45.429Z,7.32
2022-11-29T18:19:15.294Z,7.35
2022-11-29T18:21:42.566Z,7.32
2022-11-29T18:24:09.878Z,7.35
2022-11-29T18:26:37.759Z,7.42
2022-11-29T18:29:05.989Z,7.47
2022-11-29T18:31:35.215Z,7.21
2022-11-29T18:34:03.898Z,7.20
2022-11-29T18:36:36.666Z,7.35
2022-11-29T18:39:11.641Z,7.39
2022-11-29T18:41:38.634Z,7.29
2022-11-29T18:44:08.154Z,7.25
2022-11-29T18:46:37.119Z,7.31
2022-11-29T18:49:08.794Z,7.34
2022-11-29T18:51:36.784Z,7.34
2022-11-29T18:54:04.342Z,7.36
2022-11-29T18:56:33.253Z,7.35
2022-11-29T18:59:03.376Z,7.43
2022-11-29T19:01:32.466Z,7.37
2022-11-29T19:04:00.291Z,7.41
2022-11-29T19:06:37.146Z,7.35
2022-11-29T19:09:07.046Z,7.35
2022-11-29T19:11:35.127Z,7.34
2022-11-29T19:14:04.208Z,7.32
2022-11-29T19:16:32.964Z,7.41
2022-11-29T19:19:00.567Z,7.41
2022-11-29T19:21:29.919Z,7.42
2022-11-29T19:24:01.921Z,7.47
2022-11-29T19:26:30.524Z,7.42
2022-11-29T19:28:57.911Z,7.46
2022-11-29T19:31:27.189Z,7.52
2022-11-29T19:33:55.245Z,7.47
2022-11-29T19:36:24.704Z,7.51
2022-11-29T19:38:54.140Z,7.51
2022-11-29T19:41:23.883Z,7.46
2022-11-29T19:43:51.207Z,7.51
2022-11-29T19:46:24.023Z,7.35
2022-11-29T19:48:55.291Z,7.31
2022-11-29T19:51:23.144Z,7.31
2022-11-29T19:53:54.662Z,7.46
2022-11-29T19:56:22.033Z,7.37
2022-11-29T19:58:49.198Z,7.36
2022-11-29T20:01:18.458Z,7.49
2022-11-29T20:03:45.621Z,7.38
2022-11-29T20:06:13.770Z,7.34
2022-11-29T20:08:41.814Z,7.37
2022-11-29T20:11:13.525Z,7.32
2022-11-29T20:13:42.068Z,7.30
2022-11-29T20:16:11.867Z,7.33
2022-11-29T20:18:42.616Z,7.40
2022-11-29T20:21:14.715Z,7.43
2022-11-29T20:23:42.185Z,7.33
2022-11-29T20:26:17.034Z,7.27
2022-11-29T20:28:44.568Z,7.31
2022-11-29T20:31:15.201Z,7.36
2022-11-29T20:33:43.440Z,7.33
2022-11-29T20:36:48.965Z,7.39
2022-11-29T20:39:48.589Z,7.37
2022-11-29T20:43:04.084Z,7.38
2022-11-29T20:45:31.317Z,7.32
2022-11-29T20:48:11.392Z,7.40
2022-11-29T20:50:38.482Z,7.35
2022-11-29T20:53:33.035Z,7.33
2022-11-29T20:56:00.329Z,7.36
2022-11-29T20:58:27.767Z,7.40
2022-11-29T21:00:55.639Z,7.37
2022-11-29T21:03:23.500Z,7.44
2022-11-29T21:05:50.906Z,7.40
2022-11-29T21:08:21.121Z,7.33
2022-11-29T21:10:49.511Z,7.36
2022-11-29T21:13:18.092Z,7.41
2022-11-29T21:15:45.566Z,7.41
2022-11-29T21:18:24.384Z,7.36
2022-11-29T21:21:15.391Z,7.41
2022-11-29T21:24:26.524Z,7.41
2022-11-29T21:26:53.735Z,7.48
2022-11-29T21:29:23.636Z,7.46
2022-11-29T21:31:53.036Z,7.41
2022-11-29T21:34:20.843Z,7.33
2022-11-29T21:36:57.308Z,7.39
2022-11-29T21:39:27.689Z,7.39
2022-11-29T21:41:54.900Z,7.43
2022-11-29T21:44:21.689Z,7.40
2022-11-29T21:46:48.512Z,7.42
2022-11-29T21:49:15.489Z,7.46
2022-11-29T21:51:42.354Z,7.42
2022-11-29T21:54:09.132Z,7.44
2022-11-29T21:56:36.019Z,7.37
2022-11-29T21:59:03.035Z,7.37
2022-11-29T22:01:30.144Z,7.36
2022-11-29T22:03:57.010Z,7.35
2022-11-29T22:06:24.485Z,7.36
2022-11-29T22:08:51.320Z,7.36
2022-11-29T22:11:34.388Z,7.39
2022-11-29T22:14:19.959Z,7.41
2022-11-29T22:16:50.754Z,7.29
2022-11-29T22:19:19.746Z,7.42
2022-11-29T22:21:52.404Z,7.37
2022-11-29T22:24:21.191Z,7.42
2022-11-29T22:26:49.096Z,7.39
2022-11-29T22:29:16.616Z,7.39
2022-11-29T22:31:45.343Z,7.33
2022-11-29T22:34:12.238Z,7.30
2022-11-29T22:36:39.714Z,7.29
2022-11-29T22:39:07.851Z,7.31
2022-11-29T22:41:35.775Z,7.31
2022-11-29T22:44:03.302Z,7.42
2022-11-29T22:46:30.594Z,7.29
2022-11-29T22:48:58.602Z,7.16
2022-11-29T22:51:33.105Z,7.20
2022-11-29T22:54:05.683Z,7.25
2022-11-29T22:56:38.173Z,7.31
2022-11-29T22:59:05.109Z,7.30
2022-11-29T23:01:33.744Z,7.28
2022-11-29T23:04:04.093Z,7.31
2022-11-29T23:06:35.498Z,7.29
2022-11-29T23:09:12.431Z,7.35
2022-11-29T23:11:39.282Z,7.35
2022-11-29T23:14:06.170Z,7.35
2022-11-29T23:16:33.703Z,7.29
2022-11-29T23:19:01.361Z,7.30
2022-11-29T23:21:33.152Z,7.35
2022-11-29T23:24:02.862Z,7.27
2022-11-29T23:26:36.563Z,7.28
2022-11-29T23:29:08.435Z,7.27
2022-11-29T23:31:35.249Z,7.23
2022-11-29T23:34:02.590Z,7.26
2022-11-29T23:36:29.497Z,7.26
2022-11-29T23:38:56.222Z,7.26
2022-11-29T23:41:23.132Z,7.30
2022-11-29T23:43:50.042Z,7.32
2022-11-29T23:46:19.414Z,7.30
2022-11-29T23:48:46.679Z,7.22
2022-11-29T23:51:14.148Z,7.24
2022-11-29T23:53:41.457Z,7.24
2022-11-29T23:56:12.088Z,7.14
2022-11-29T23:58:39.059Z,7.13
